createdAt,value
2022-07-31T00:00:25.503Z,17.34
2022-07-31T00:03:04.106Z,17.27
2022-07-31T00:05:31.768Z,17.13
2022-07-31T00:08:06.023Z,17.22
2022-07-31T00:10:33.700Z,17.20
2022-07-31T00:13:00.923Z,17.13
2022-07-31T00:15:28.170Z,16.93
2022-07-31T00:17:55.642Z,16.99
2022-07-31T00:20:22.834Z,16.92
2022-07-31T00:22:50.671Z,16.85
2022-07-31T00:25:18.985Z,16.83
2022-07-31T00:27:46.417Z,16.78
2022-07-31T00:30:14.694Z,16.82
2022-07-31T00:32:42.173Z,16.75
2022-07-31T00:35:12.351Z,16.87
2022-07-31T00:37:40.557Z,16.81
2022-07-31T00:40:11.750Z,16.78
2022-07-31T00:42:39.925Z,16.72
2022-07-31T00:45:07.945Z,16.75
2022-07-31T00:47:35.862Z,16.72
2022-07-31T00:50:04.129Z,16.75
2022-07-31T00:52:31.432Z,16.71
2022-07-31T00:54:59.119Z,16.68
2022-07-31T00:57:26.330Z,16.72
2022-07-31T00:59:53.568Z,16.79
2022-07-31T01:02:21.110Z,16.93
2022-07-31T01:04:48.308Z,16.82
2022-07-31T01:07:15.811Z,16.89
2022-07-31T01:09:44.936Z,16.73
2022-07-31T01:12:26.175Z,16.87
2022-07-31T01:14:56.585Z,16.78
2022-07-31T01:17:27.578Z,16.59
2022-07-31T01:19:55.237Z,16.56
2022-07-31T01:22:53.902Z,16.65
2022-07-31T01:25:58.728Z,16.70
2022-07-31T01:29:29.935Z,16.93
2022-07-31T01:32:10.879Z,16.78
2022-07-31T01:34:41.978Z,16.79
2022-07-31T01:37:18.156Z,16.70
2022-07-31T01:39:52.774Z,16.76
2022-07-31T01:42:24.757Z,16.79
2022-07-31T01:44:57.071Z,16.84
2022-07-31T01:47:27.809Z,16.80
2022-07-31T01:49:58.581Z,16.74
2022-07-31T01:52:28.483Z,16.67
2022-07-31T01:54:58.682Z,16.62
2022-07-31T01:57:27.498Z,16.62
2022-07-31T02:00:00.954Z,16.54
2022-07-31T02:02:43.909Z,16.61
2022-07-31T02:05:12.934Z,16.73
2022-07-31T02:07:45.222Z,16.77
2022-07-31T02:10:15.666Z,16.73
2022-07-31T02:12:45.563Z,16.74
2022-07-31T02:15:14.919Z,16.72
2022-07-31T02:17:46.186Z,16.63
2022-07-31T02:20:23.802Z,16.59
2022-07-31T02:22:54.638Z,16.60
2022-07-31T02:25:22.378Z,16.62
2022-07-31T02:27:55.558Z,16.51
2022-07-31T02:30:39.261Z,16.55
2022-07-31T02:33:28.756Z,16.40
2022-07-31T02:35:57.654Z,16.53
2022-07-31T02:38:27.580Z,16.68
2022-07-31T02:40:58.862Z,16.61
2022-07-31T02:43:28.635Z,16.56
2022-07-31T02:45:58.788Z,16.48
2022-07-31T02:48:27.234Z,16.53
2022-07-31T02:50:57.736Z,16.61
2022-07-31T02:53:26.108Z,16.49
2022-07-31T02:55:59.054Z,16.62
2022-07-31T02:58:26.303Z,16.52
2022-07-31T03:01:06.318Z,16.59
2022-07-31T03:03:35.242Z,16.67
2022-07-31T03:06:02.543Z,16.75
2022-07-31T03:08:30.057Z,16.89
2022-07-31T03:11:03.537Z,16.74
2022-07-31T03:13:33.578Z,16.65
2022-07-31T03:16:02.428Z,16.60
2022-07-31T03:18:31.436Z,16.65
2022-07-31T03:20:58.753Z,16.70
2022-07-31T03:23:28.263Z,16.72
2022-07-31T03:26:05.882Z,16.76
2022-07-31T03:28:36.106Z,16.73
2022-07-31T03:31:03.661Z,16.62
2022-07-31T03:33:32.076Z,16.68
2022-07-31T03:35:59.604Z,16.79
2022-07-31T03:38:41.547Z,16.77
2022-07-31T03:41:32.681Z,16.84
2022-07-31T03:44:00.004Z,16.95
2022-07-31T03:46:28.227Z,16.95
2022-07-31T03:48:55.930Z,16.89
2022-07-31T03:51:26.215Z,16.86
2022-07-31T03:53:54.085Z,17.01
2022-07-31T03:56:45.443Z,17.01
2022-07-31T03:59:16.030Z,16.99
2022-07-31T04:01:57.258Z,17.00
2022-07-31T04:04:48.981Z,17.21
2022-07-31T04:07:17.222Z,17.09
2022-07-31T04:09:45.385Z,17.08
2022-07-31T04:12:14.419Z,16.99
2022-07-31T04:14:41.987Z,16.99
2022-07-31T04:17:09.419Z,17.02
2022-07-31T04:19:37.012Z,17.08
2022-07-31T04:22:04.841Z,16.98
2022-07-31T04:24:33.452Z,17.17
2022-07-31T04:27:48.569Z,17.14
2022-07-31T04:30:17.176Z,17.04
2022-07-31T04:32:45.326Z,17.14
2022-07-31T04:35:16.078Z,17.17
2022-07-31T04:37:48.459Z,17.15
2022-07-31T04:40:17.279Z,17.12
2022-07-31T04:42:44.754Z,17.13
2022-07-31T04:45:12.074Z,17.21
2022-07-31T04:47:39.607Z,17.14
2022-07-31T04:50:08.104Z,17.17
2022-07-31T04:52:35.433Z,17.07
2022-07-31T04:55:09.438Z,17.16
2022-07-31T04:57:36.820Z,17.20
2022-07-31T05:00:09.617Z,17.33
2022-07-31T05:02:37.476Z,17.22
2022-07-31T05:05:05.353Z,17.23
2022-07-31T05:07:38.196Z,17.15
2022-07-31T05:10:33.574Z,17.39
2022-07-31T05:13:01.156Z,17.39
2022-07-31T05:15:28.399Z,17.43
2022-07-31T05:17:56.982Z,17.68
2022-07-31T05:20:43.006Z,17.60
2022-07-31T05:23:44.140Z,17.58
2022-07-31T05:26:17.412Z,17.57
2022-07-31T05:28:46.759Z,17.73
2022-07-31T05:31:14.235Z,17.76
2022-07-31T05:33:41.794Z,17.78
2022-07-31T05:36:09.355Z,17.76
2022-07-31T05:38:36.704Z,17.82
2022-07-31T05:41:33.411Z,17.97
2022-07-31T05:44:11.134Z,18.03
2022-07-31T05:46:44.765Z,18.23
2022-07-31T05:49:12.057Z,18.30
2022-07-31T05:51:43.368Z,18.36
2022-07-31T05:54:10.934Z,18.23
2022-07-31T05:56:56.608Z,18.45
2022-07-31T05:59:32.956Z,18.43
2022-07-31T06:02:00.325Z,18.66
2022-07-31T06:04:29.421Z,18.48
2022-07-31T06:06:56.877Z,18.59
2022-07-31T06:09:24.904Z,18.62
2022-07-31T06:11:53.727Z,18.68
2022-07-31T06:14:21.198Z,18.70
2022-07-31T06:17:05.804Z,18.75
2022-07-31T06:19:35.124Z,18.89
2022-07-31T06:22:02.727Z,18.81
2022-07-31T06:24:32.322Z,18.74
2022-07-31T06:27:02.361Z,18.85
2022-07-31T06:29:41.024Z,18.90
2022-07-31T06:32:09.914Z,19.07
2022-07-31T06:34:37.596Z,19.08
2022-07-31T06:37:05.426Z,18.92
2022-07-31T06:39:54.288Z,19.23
2022-07-31T06:42:40.802Z,18.96
2022-07-31T06:45:08.920Z,19.11
2022-07-31T06:48:02.470Z,19.02
2022-07-31T06:50:35.947Z,18.95
2022-07-31T06:53:32.269Z,19.07
2022-07-31T06:55:59.856Z,19.08
2022-07-31T06:58:27.108Z,19.27
2022-07-31T07:00:54.341Z,19.54
2022-07-31T07:03:21.740Z,19.60
2022-07-31T07:05:49.677Z,19.37
2022-07-31T07:08:16.920Z,19.19
2022-07-31T07:10:46.402Z,19.23
2022-07-31T07:13:19.378Z,19.01
2022-07-31T07:15:46.611Z,18.98
2022-07-31T07:18:14.588Z,19.13
2022-07-31T07:20:49.851Z,19.02
2022-07-31T07:23:17.506Z,19.07
2022-07-31T07:25:52.771Z,19.37
2022-07-31T07:28:30.788Z,19.40
2022-07-31T07:31:00.614Z,19.15
2022-07-31T07:33:39.552Z,19.09
2022-07-31T07:36:07.816Z,19.41
2022-07-31T07:38:55.876Z,19.39
2022-07-31T07:41:27.117Z,19.62
2022-07-31T07:43:54.747Z,19.44
2022-07-31T07:46:25.778Z,19.49
2022-07-31T07:48:57.503Z,19.20
2022-07-31T07:51:58.895Z,19.20
2022-07-31T07:54:40.631Z,19.23
2022-07-31T07:57:26.567Z,19.27
2022-07-31T08:00:08.974Z,19.09
2022-07-31T08:03:02.878Z,18.69
2022-07-31T08:05:41.097Z,19.06
2022-07-31T08:08:09.547Z,19.35
2022-07-31T08:10:43.373Z,19.57
2022-07-31T08:13:15.769Z,19.31
2022-07-31T08:16:12.528Z,19.21
2022-07-31T08:18:45.579Z,19.33
2022-07-31T08:21:13.279Z,19.65
2022-07-31T08:23:40.881Z,19.48
2022-07-31T08:26:08.925Z,19.52
2022-07-31T08:28:36.505Z,19.52
2022-07-31T08:31:04.128Z,19.54
2022-07-31T08:33:34.393Z,19.63
2022-07-31T08:36:02.031Z,19.73
2022-07-31T08:38:29.932Z,19.71
2022-07-31T08:41:38.897Z,19.99
2022-07-31T08:44:10.537Z,20.58
2022-07-31T08:46:39.788Z,21.10
2022-07-31T08:49:09.972Z,20.66
2022-07-31T08:51:51.252Z,20.52
2022-07-31T08:54:54.865Z,20.21
2022-07-31T08:57:26.919Z,20.81
2022-07-31T08:59:55.492Z,20.63
2022-07-31T09:02:22.869Z,20.40
2022-07-31T09:05:22.800Z,20.45
2022-07-31T09:07:50.106Z,20.47
2022-07-31T09:10:22.984Z,20.81
2022-07-31T09:12:52.093Z,20.54
2022-07-31T09:15:21.216Z,20.68
2022-07-31T09:17:53.890Z,20.73
2022-07-31T09:20:27.867Z,20.38
2022-07-31T09:23:07.421Z,20.08
2022-07-31T09:25:37.043Z,20.50
2022-07-31T09:28:06.863Z,20.39
2022-07-31T09:30:35.221Z,19.92
2022-07-31T09:33:55.105Z,20.36
2022-07-31T09:36:34.271Z,20.78
2022-07-31T09:39:14.842Z,20.49
2022-07-31T09:42:16.426Z,20.24
2022-07-31T09:44:55.751Z,19.95
2022-07-31T09:47:32.201Z,20.19
2022-07-31T09:50:04.440Z,20.02
2022-07-31T09:52:33.544Z,20.12
2022-07-31T09:55:15.005Z,20.15
2022-07-31T09:57:54.538Z,20.19
2022-07-31T10:00:23.093Z,20.17
2022-07-31T10:02:53.891Z,20.51
2022-07-31T10:05:26.560Z,20.37
2022-07-31T10:08:00.666Z,20.36
2022-07-31T10:10:45.329Z,20.27
2022-07-31T10:13:56.603Z,20.45
2022-07-31T10:16:27.538Z,20.12
2022-07-31T10:19:36.914Z,20.35
2022-07-31T10:22:27.570Z,19.94
2022-07-31T10:25:00.604Z,19.99
2022-07-31T10:27:29.909Z,20.22
2022-07-31T10:30:03.515Z,20.03
2022-07-31T10:32:32.208Z,20.27
2022-07-31T10:35:19.331Z,19.77
2022-07-31T10:38:19.164Z,19.81
2022-07-31T10:40:56.727Z,20.13
2022-07-31T10:43:29.373Z,20.17
2022-07-31T10:46:10.109Z,20.43
2022-07-31T10:49:08.518Z,19.74
2022-07-31T10:52:02.337Z,19.51
2022-07-31T10:54:49.112Z,19.62
2022-07-31T10:57:55.305Z,19.80
2022-07-31T11:00:45.622Z,19.86
2022-07-31T11:03:46.393Z,20.53
2022-07-31T11:06:21.747Z,20.48
2022-07-31T11:09:09.475Z,20.27
2022-07-31T11:11:45.055Z,20.29
2022-07-31T11:14:39.719Z,19.83
2022-07-31T11:18:23.781Z,20.09
2022-07-31T11:20:32.896Z,20.55
2022-07-31T11:23:05.341Z,20.90
2022-07-31T11:25:35.144Z,20.77
2022-07-31T11:28:16.285Z,20.69
2022-07-31T11:31:00.076Z,20.85
2022-07-31T11:33:42.144Z,20.51
2022-07-31T11:36:16.722Z,20.61
2022-07-31T11:38:47.000Z,20.03
2022-07-31T11:41:15.399Z,20.59
2022-07-31T11:43:47.476Z,20.68
2022-07-31T11:46:27.891Z,20.49
2022-07-31T11:48:57.213Z,20.83
2022-07-31T11:51:25.919Z,20.05
2022-07-31T11:53:58.064Z,19.79
2022-07-31T11:56:27.127Z,20.04
2022-07-31T11:58:57.045Z,19.70
2022-07-31T12:01:27.702Z,20.07
2022-07-31T12:03:57.013Z,20.16
2022-07-31T12:06:24.304Z,20.36
2022-07-31T12:08:52.854Z,20.18
2022-07-31T12:11:21.410Z,20.17
2022-07-31T12:13:49.584Z,19.92
2022-07-31T12:16:18.908Z,19.96
2022-07-31T12:18:59.350Z,20.16
2022-07-31T12:21:36.019Z,20.11
2022-07-31T12:24:12.059Z,19.78
2022-07-31T12:26:43.063Z,19.62
2022-07-31T12:29:12.880Z,19.38
2022-07-31T12:31:49.236Z,19.71
2022-07-31T12:34:31.967Z,19.84
2022-07-31T12:36:59.217Z,19.73
2022-07-31T12:39:54.177Z,19.27
2022-07-31T12:42:35.155Z,19.35
2022-07-31T12:45:17.984Z,19.53
2022-07-31T12:47:52.123Z,19.76
2022-07-31T12:50:21.559Z,19.79
2022-07-31T12:52:48.890Z,19.92
2022-07-31T12:55:17.305Z,19.67
2022-07-31T12:57:50.971Z,19.45
2022-07-31T13:00:24.052Z,19.66
2022-07-31T13:02:56.656Z,19.61
2022-07-31T13:05:24.995Z,19.47
2022-07-31T13:07:52.577Z,19.28
2022-07-31T13:10:24.805Z,19.57
2022-07-31T13:12:52.985Z,19.57
2022-07-31T13:15:29.690Z,19.75
2022-07-31T13:17:58.717Z,19.57
2022-07-31T13:20:26.334Z,19.77
2022-07-31T13:22:53.823Z,19.47
2022-07-31T13:25:21.070Z,19.82
2022-07-31T13:27:48.470Z,20.06
2022-07-31T13:30:16.354Z,19.87
2022-07-31T13:32:43.753Z,19.33
2022-07-31T13:35:24.211Z,19.77
2022-07-31T13:37:55.385Z,19.30
2022-07-31T13:40:42.907Z,19.35
2022-07-31T13:43:10.333Z,19.88
2022-07-31T13:45:37.984Z,19.74
2022-07-31T13:48:09.200Z,19.76
2022-07-31T13:50:39.710Z,19.84
2022-07-31T13:53:07.968Z,19.85
2022-07-31T13:55:36.563Z,19.42
2022-07-31T13:58:04.040Z,19.34
2022-07-31T14:00:32.236Z,19.22
2022-07-31T14:02:59.565Z,19.68
2022-07-31T14:05:27.508Z,20.20
2022-07-31T14:07:56.406Z,20.51
2022-07-31T14:10:48.449Z,19.90
2022-07-31T14:13:19.164Z,19.73
2022-07-31T14:15:47.280Z,19.63
2022-07-31T14:18:14.698Z,19.45
2022-07-31T14:20:42.727Z,19.84
2022-07-31T14:23:10.150Z,19.91
2022-07-31T14:25:41.339Z,19.51
2022-07-31T14:28:09.984Z,19.49
2022-07-31T14:30:37.580Z,19.17
2022-07-31T14:33:05.168Z,19.13
2022-07-31T14:35:33.770Z,19.27
2022-07-31T14:38:04.193Z,19.47
2022-07-31T14:40:31.763Z,19.43
2022-07-31T14:42:59.480Z,19.47
2022-07-31T14:45:26.909Z,19.97
2022-07-31T14:47:55.305Z,20.15
2022-07-31T14:50:23.497Z,20.29
2022-07-31T14:52:50.789Z,20.25
2022-07-31T14:55:19.453Z,20.16
2022-07-31T14:57:46.961Z,19.81
2022-07-31T15:00:15.083Z,19.88
2022-07-31T15:02:43.780Z,19.67
2022-07-31T15:06:51.034Z,19.40
2022-07-31T15:08:00.376Z,19.52
2022-07-31T15:10:30.290Z,19.55
2022-07-31T15:12:58.534Z,19.40
2022-07-31T15:15:25.730Z,19.72
2022-07-31T15:17:56.517Z,19.77
2022-07-31T15:20:28.882Z,19.74
2022-07-31T15:23:01.683Z,19.74
2022-07-31T15:25:29.107Z,19.48
2022-07-31T15:27:56.389Z,19.52
2022-07-31T15:30:23.866Z,19.27
2022-07-31T15:32:52.468Z,19.55
2022-07-31T15:35:19.882Z,19.52
2022-07-31T15:37:47.381Z,19.66
2022-07-31T15:40:15.821Z,19.21
2022-07-31T15:42:45.088Z,19.23
2022-07-31T15:45:15.625Z,19.33
2022-07-31T15:47:43.402Z,19.17
2022-07-31T15:50:12.277Z,19.25
2022-07-31T15:52:39.970Z,19.17
2022-07-31T15:55:07.878Z,19.07
2022-07-31T15:57:35.443Z,19.09
2022-07-31T16:00:05.086Z,19.17
2022-07-31T16:02:38.589Z,19.13
2022-07-31T16:05:11.815Z,19.14
2022-07-31T16:08:31.038Z,19.04
2022-07-31T16:10:37.571Z,19.06
2022-07-31T16:13:05.067Z,18.90
2022-07-31T16:15:32.421Z,18.80
2022-07-31T16:17:59.862Z,18.82
2022-07-31T16:20:27.449Z,18.72
2022-07-31T16:22:58.120Z,18.74
2022-07-31T16:25:27.214Z,18.82
2022-07-31T16:27:55.351Z,18.78
2022-07-31T16:30:23.269Z,18.78
2022-07-31T16:32:50.835Z,18.80
2022-07-31T16:35:18.436Z,18.65
2022-07-31T16:37:50.927Z,18.61
2022-07-31T16:40:30.628Z,18.47
2022-07-31T16:43:46.760Z,18.53
2022-07-31T16:45:50.672Z,18.55
2022-07-31T16:48:18.423Z,18.65
2022-07-31T16:50:48.203Z,18.61
2022-07-31T16:54:11.398Z,18.65
2022-07-31T16:56:09.018Z,18.44
2022-07-31T16:58:36.631Z,18.52
2022-07-31T17:01:04.238Z,18.58
2022-07-31T17:04:00.894Z,18.43
2022-07-31T17:06:19.262Z,18.29
2022-07-31T17:09:17.209Z,18.22
2022-07-31T17:11:49.294Z,18.16
2022-07-31T17:14:18.319Z,18.17
2022-07-31T17:16:48.288Z,18.28
2022-07-31T17:19:41.171Z,18.24
2022-07-31T17:22:17.946Z,18.35
2022-07-31T17:24:51.069Z,18.38
2022-07-31T17:27:20.097Z,17.89
2022-07-31T17:29:47.734Z,18.12
2022-07-31T17:32:14.980Z,18.23
2022-07-31T17:34:45.245Z,18.18
2022-07-31T17:37:13.029Z,18.26
2022-07-31T17:39:40.711Z,18.30
2022-07-31T17:42:09.345Z,18.24
2022-07-31T17:44:38.003Z,18.05
2022-07-31T17:47:08.387Z,18.17
2022-07-31T17:49:36.127Z,18.17
2022-07-31T17:52:04.438Z,17.96
2022-07-31T17:54:32.675Z,18.13
2022-07-31T17:57:00.400Z,18.35
2022-07-31T17:59:28.260Z,18.21
2022-07-31T18:02:05.805Z,18.08
2022-07-31T18:04:35.553Z,18.03
2022-07-31T18:07:04.486Z,17.90
2022-07-31T18:09:32.141Z,17.98
2022-07-31T18:12:00.127Z,17.78
2022-07-31T18:14:27.455Z,17.88
2022-07-31T18:16:54.969Z,17.67
2022-07-31T18:19:22.796Z,17.63
2022-07-31T18:21:51.408Z,17.66
2022-07-31T18:24:19.961Z,17.55
2022-07-31T18:26:47.619Z,17.62
2022-07-31T18:29:17.043Z,17.60
2022-07-31T18:31:44.941Z,17.51
2022-07-31T18:34:13.563Z,17.36
2022-07-31T18:36:41.018Z,17.15
2022-07-31T18:39:08.656Z,17.13
2022-07-31T18:41:37.358Z,16.88
2022-07-31T18:44:05.111Z,16.68
2022-07-31T18:46:32.443Z,16.72
2022-07-31T18:49:00.539Z,16.72
2022-07-31T18:51:29.297Z,16.76
2022-07-31T18:53:56.942Z,16.91
2022-07-31T18:56:25.128Z,16.63
2022-07-31T18:58:53.211Z,16.59
2022-07-31T19:01:20.948Z,16.41
2022-07-31T19:03:48.570Z,16.10
2022-07-31T19:06:16.697Z,15.99
2022-07-31T19:08:44.333Z,15.73
2022-07-31T19:11:12.537Z,15.68
2022-07-31T19:13:39.970Z,15.49
2022-07-31T19:16:07.272Z,15.46
2022-07-31T19:18:34.756Z,15.29
2022-07-31T19:21:23.541Z,15.29
2022-07-31T19:23:50.057Z,15.22
2022-07-31T19:26:17.290Z,15.18
2022-07-31T19:28:44.816Z,15.13
2022-07-31T19:31:13.422Z,15.17
2022-07-31T19:33:41.037Z,15.14
2022-07-31T19:36:10.735Z,15.07
2022-07-31T19:38:39.753Z,15.06
2022-07-31T19:41:06.965Z,14.94
2022-07-31T19:43:34.217Z,14.97
2022-07-31T19:46:11.618Z,14.93
2022-07-31T19:48:45.323Z,14.86
2022-07-31T19:51:14.303Z,14.80
2022-07-31T19:53:42.284Z,14.72
2022-07-31T19:56:10.586Z,14.67
2022-07-31T19:58:41.241Z,14.61
2022-07-31T20:01:10.079Z,14.67
2022-07-31T20:03:37.705Z,14.60
2022-07-31T20:06:05.518Z,14.58
2022-07-31T20:08:33.935Z,14.47
2022-07-31T20:11:04.151Z,14.54
2022-07-31T20:13:33.028Z,14.54
2022-07-31T20:16:01.324Z,14.52
2022-07-31T20:18:29.439Z,14.40
2022-07-31T20:21:00.451Z,14.45
2022-07-31T20:23:28.147Z,14.36
2022-07-31T20:25:55.613Z,14.46
2022-07-31T20:28:23.353Z,14.48
2022-07-31T20:30:50.612Z,14.46
2022-07-31T20:33:17.941Z,14.36
2022-07-31T20:35:49.466Z,14.41
2022-07-31T20:38:22.161Z,14.30
2022-07-31T20:40:53.897Z,14.23
2022-07-31T20:43:23.733Z,14.30
2022-07-31T20:45:52.437Z,14.26
2022-07-31T20:48:22.562Z,14.20
2022-07-31T20:50:50.678Z,14.17
2022-07-31T20:53:19.608Z,14.18
2022-07-31T20:55:49.431Z,14.23
2022-07-31T20:58:18.552Z,14.28
2022-07-31T21:00:47.522Z,14.35
2022-07-31T21:03:16.262Z,14.29
2022-07-31T21:05:44.298Z,14.12
2022-07-31T21:08:12.305Z,14.09
2022-07-31T21:10:39.712Z,14.15
2022-07-31T21:13:07.123Z,14.00
2022-07-31T21:15:42.476Z,13.94
2022-07-31T21:18:12.461Z,13.91
2022-07-31T21:20:50.212Z,14.03
2022-07-31T21:23:21.870Z,13.90
2022-07-31T21:25:50.703Z,13.91
2022-07-31T21:28:18.401Z,13.87
2022-07-31T21:30:45.849Z,13.80
2022-07-31T21:33:13.639Z,13.80
2022-07-31T21:35:41.061Z,13.76
2022-07-31T21:38:12.575Z,13.65
2022-07-31T21:40:40.711Z,13.75
2022-07-31T21:43:09.166Z,13.64
2022-07-31T21:45:51.153Z,13.57
2022-07-31T21:48:25.966Z,13.57
2022-07-31T21:50:54.860Z,13.57
2022-07-31T21:53:22.846Z,13.46
2022-07-31T21:55:50.924Z,13.47
2022-07-31T21:58:18.635Z,13.42
2022-07-31T22:00:46.276Z,13.35
2022-07-31T22:03:13.837Z,13.45
2022-07-31T22:05:59.560Z,13.41
2022-07-31T22:08:27.233Z,13.37
2022-07-31T22:10:54.522Z,13.23
2022-07-31T22:13:21.858Z,13.31
2022-07-31T22:15:54.304Z,13.30
2022-07-31T22:18:31.071Z,13.26
2022-07-31T22:21:00.523Z,13.32
2022-07-31T22:23:28.561Z,13.32
2022-07-31T22:25:56.455Z,13.31
2022-07-31T22:28:25.506Z,13.24
2022-07-31T22:30:53.884Z,13.31
2022-07-31T22:33:22.046Z,13.35
2022-07-31T22:35:58.164Z,13.26
2022-07-31T22:38:29.690Z,13.31
2022-07-31T22:40:59.013Z,13.22
2022-07-31T22:44:13.523Z,13.16
2022-07-31T22:46:15.456Z,13.03
2022-07-31T22:48:45.563Z,13.11
2022-07-31T22:51:14.638Z,13.15
2022-07-31T22:53:43.688Z,13.13
2022-07-31T22:56:11.072Z,13.09
2022-07-31T22:58:38.398Z,12.95
2022-07-31T23:01:05.837Z,13.03
2022-07-31T23:03:33.117Z,13.00
2022-07-31T23:06:03.558Z,12.88
2022-07-31T23:08:54.601Z,12.97
2022-07-31T23:11:23.577Z,12.92
2022-07-31T23:13:51.743Z,12.94
2022-07-31T23:16:20.481Z,12.92
2022-07-31T23:18:48.967Z,12.89
2022-07-31T23:21:18.768Z,12.78
2022-07-31T23:23:49.188Z,12.94
2022-07-31T23:26:21.699Z,12.89
2022-07-31T23:28:49.080Z,12.88
2022-07-31T23:31:17.559Z,12.85
2022-07-31T23:33:45.944Z,12.75
2022-07-31T23:36:14.273Z,12.70
2022-07-31T23:38:42.474Z,12.77
2022-07-31T23:41:10.687Z,12.67
2022-07-31T23:43:38.024Z,12.73
2022-07-31T23:46:05.682Z,12.61
2022-07-31T23:48:36.210Z,12.63
2022-07-31T23:51:06.615Z,12.69
2022-07-31T23:53:34.082Z,12.57
2022-07-31T23:56:01.269Z,12.58
2022-07-31T23:58:28.447Z,12.63
